sensor_id;sensor_type;location;lat;lon;timestamp;P1;durP1;ratioP1;P2;durP2;ratioP2
18917;SDS011;9591;52.742;13.650;2023-03-01T00:02:02;13.73;;;7.03;;
18917;SDS011;9591;52.742;13.650;2023-03-01T00:04:51;10.83;;;6.20;;
18917;SDS011;9591;52.742;13.650;2023-03-01T00:07:37;12.37;;;6.13;;
18917;SDS011;9591;52.742;13.650;2023-03-01T00:10:24;8.97;;;5.50;;
18917;SDS011;9591;52.742;13.650;2023-03-01T00:13:11;10.13;;;5.80;;
18917;SDS011;9591;52.742;13.650;2023-03-01T00:15:58;10.00;;;6.20;;
18917;SDS011;9591;52.742;13.650;2023-03-01T00:18:47;12.83;;;6.73;;
18917;SDS011;9591;52.742;13.650;2023-03-01T00:21:35;10.83;;;6.67;;
18917;SDS011;9591;52.742;13.650;2023-03-01T00:24:22;14.67;;;7.07;;
18917;SDS011;9591;52.742;13.650;2023-03-01T00:27:09;8.50;;;6.23;;
18917;SDS011;9591;52.742;13.650;2023-03-01T00:29:55;12.03;;;7.57;;
18917;SDS011;9591;52.742;13.650;2023-03-01T00:32:43;10.70;;;6.20;;
18917;SDS011;9591;52.742;13.650;2023-03-01T00:35:29;14.60;;;6.47;;
18917;SDS011;9591;52.742;13.650;2023-03-01T00:38:19;14.50;;;7.00;;
18917;SDS011;9591;52.742;13.650;2023-03-01T00:41:06;13.27;;;7.37;;
18917;SDS011;9591;52.742;13.650;2023-03-01T00:43:54;16.33;;;7.07;;
18917;SDS011;9591;52.742;13.650;2023-03-01T00:46:41;9.23;;;5.60;;
18917;SDS011;9591;52.742;13.650;2023-03-01T00:49:28;10.00;;;6.70;;
18917;SDS011;9591;52.742;13.650;2023-03-01T00:52:15;11.47;;;6.67;;
18917;SDS011;9591;52.742;13.650;2023-03-01T00:55:03;11.57;;;7.13;;
18917;SDS011;9591;52.742;13.650;2023-03-01T00:57:51;13.80;;;7.27;;
18917;SDS011;9591;52.742;13.650;2023-03-01T01:00:38;14.37;;;8.10;;
18917;SDS011;9591;52.742;13.650;2023-03-01T01:03:25;15.63;;;8.10;;
18917;SDS011;9591;52.742;13.650;2023-03-01T01:06:13;15.00;;;7.37;;
18917;SDS011;9591;52.742;13.650;2023-03-01T01:09:00;13.93;;;7.77;;
18917;SDS011;9591;52.742;13.650;2023-03-01T01:11:50;17.33;;;7.93;;
18917;SDS011;9591;52.742;13.650;2023-03-01T01:14:37;13.00;;;7.63;;
18917;SDS011;9591;52.742;13.650;2023-03-01T01:17:27;19.57;;;7.50;;
18917;SDS011;9591;52.742;13.650;2023-03-01T01:20:14;12.57;;;7.80;;
18917;SDS011;9591;52.742;13.650;2023-03-01T01:23:00;12.73;;;7.20;;
18917;SDS011;9591;52.742;13.650;2023-03-01T01:25:47;21.70;;;8.77;;
18917;SDS011;9591;52.742;13.650;2023-03-01T01:28:35;15.03;;;8.37;;
18917;SDS011;9591;52.742;13.650;2023-03-01T01:31:22;13.00;;;8.27;;
18917;SDS011;9591;52.742;13.650;2023-03-01T01:34:12;15.87;;;7.53;;
18917;SDS011;9591;52.742;13.650;2023-03-01T01:37:01;14.43;;;6.83;;
18917;SDS011;9591;52.742;13.650;2023-03-01T01:39:47;16.43;;;7.43;;
18917;SDS011;9591;52.742;13.650;2023-03-01T01:42:34;16.20;;;8.33;;
18917;SDS011;9591;52.742;13.650;2023-03-01T01:45:27;15.50;;;7.40;;
18917;SDS011;9591;52.742;13.650;2023-03-01T01:48:18;11.90;;;6.87;;
18917;SDS011;9591;52.742;13.650;2023-03-01T01:51:09;11.43;;;6.70;;
18917;SDS011;9591;52.742;13.650;2023-03-01T01:53:59;11.77;;;6.23;;
18917;SDS011;9591;52.742;13.650;2023-03-01T01:56:48;10.83;;;6.03;;
18917;SDS011;9591;52.742;13.650;2023-03-01T01:59:39;10.27;;;6.67;;
18917;SDS011;9591;52.742;13.650;2023-03-01T02:02:30;9.47;;;6.47;;
18917;SDS011;9591;52.742;13.650;2023-03-01T02:05:18;10.60;;;5.93;;
18917;SDS011;9591;52.742;13.650;2023-03-01T02:08:10;12.37;;;6.27;;
18917;SDS011;9591;52.742;13.650;2023-03-01T02:10:58;11.17;;;6.10;;
18917;SDS011;9591;52.742;13.650;2023-03-01T02:13:46;12.30;;;6.83;;
18917;SDS011;9591;52.742;13.650;2023-03-01T02:16:34;10.90;;;6.23;;
18917;SDS011;9591;52.742;13.650;2023-03-01T02:19:25;13.70;;;6.73;;
18917;SDS011;9591;52.742;13.650;2023-03-01T02:22:20;10.60;;;5.07;;
18917;SDS011;9591;52.742;13.650;2023-03-01T02:25:12;11.07;;;5.70;;
18917;SDS011;9591;52.742;13.650;2023-03-01T02:28:30;13.13;;;5.37;;
18917;SDS011;9591;52.742;13.650;2023-03-01T02:31:19;8.07;;;5.07;;
18917;SDS011;9591;52.742;13.650;2023-03-01T02:34:24;8.77;;;5.07;;
18917;SDS011;9591;52.742;13.650;2023-03-01T02:37:13;8.57;;;4.97;;
18917;SDS011;9591;52.742;13.650;2023-03-01T02:40:06;10.70;;;4.90;;
18917;SDS011;9591;52.742;13.650;2023-03-01T02:42:58;4.97;;;4.20;;
18917;SDS011;9591;52.742;13.650;2023-03-01T02:45:49;12.02;;;5.30;;
18917;SDS011;9591;52.742;13.650;2023-03-01T02:48:40;7.85;;;4.95;;
18917;SDS011;9591;52.742;13.650;2023-03-01T02:51:34;9.50;;;5.32;;
18917;SDS011;9591;52.742;13.650;2023-03-01T02:54:30;7.90;;;5.05;;
18917;SDS011;9591;52.742;13.650;2023-03-01T02:57:22;8.40;;;4.30;;
18917;SDS011;9591;52.742;13.650;2023-03-01T03:00:13;8.13;;;5.25;;
18917;SDS011;9591;52.742;13.650;2023-03-01T03:03:06;7.10;;;4.20;;
18917;SDS011;9591;52.742;13.650;2023-03-01T03:05:53;8.40;;;5.82;;
18917;SDS011;9591;52.742;13.650;2023-03-01T03:08:40;6.55;;;4.90;;
18917;SDS011;9591;52.742;13.650;2023-03-01T03:11:27;7.10;;;5.97;;
18917;SDS011;9591;52.742;13.650;2023-03-01T03:14:14;7.07;;;4.60;;
18917;SDS011;9591;52.742;13.650;2023-03-01T03:17:04;8.77;;;5.40;;
18917;SDS011;9591;52.742;13.650;2023-03-01T03:19:52;12.43;;;6.07;;
18917;SDS011;9591;52.742;13.650;2023-03-01T03:22:39;11.20;;;4.73;;
18917;SDS011;9591;52.742;13.650;2023-03-01T03:25:27;8.75;;;4.53;;
18917;SDS011;9591;52.742;13.650;2023-03-01T03:28:15;8.33;;;5.53;;
18917;SDS011;9591;52.742;13.650;2023-03-01T03:31:02;7.55;;;4.90;;
18917;SDS011;9591;52.742;13.650;2023-03-01T03:33:51;6.00;;;4.13;;
18917;SDS011;9591;52.742;13.650;2023-03-01T03:36:39;9.00;;;4.73;;
18917;SDS011;9591;52.742;13.650;2023-03-01T03:39:26;9.00;;;5.37;;
18917;SDS011;9591;52.742;13.650;2023-03-01T03:42:14;9.32;;;5.70;;
18917;SDS011;9591;52.742;13.650;2023-03-01T03:45:00;12.18;;;5.47;;
18917;SDS011;9591;52.742;13.650;2023-03-01T03:47:47;6.25;;;4.63;;
18917;SDS011;9591;52.742;13.650;2023-03-01T03:50:34;9.13;;;5.33;;
18917;SDS011;9591;52.742;13.650;2023-03-01T03:53:24;5.55;;;4.05;;
18917;SDS011;9591;52.742;13.650;2023-03-01T03:56:12;9.23;;;4.80;;
18917;SDS011;9591;52.742;13.650;2023-03-01T03:58:59;9.38;;;5.57;;
18917;SDS011;9591;52.742;13.650;2023-03-01T04:01:46;8.90;;;4.97;;
18917;SDS011;9591;52.742;13.650;2023-03-01T04:04:32;7.45;;;4.53;;
18917;SDS011;9591;52.742;13.650;2023-03-01T04:07:19;9.35;;;4.35;;
18917;SDS011;9591;52.742;13.650;2023-03-01T04:10:09;9.53;;;4.83;;
18917;SDS011;9591;52.742;13.650;2023-03-01T04:12:58;7.70;;;5.38;;
18917;SDS011;9591;52.742;13.650;2023-03-01T04:15:45;7.90;;;5.00;;
18917;SDS011;9591;52.742;13.650;2023-03-01T04:18:32;7.25;;;4.93;;
18917;SDS011;9591;52.742;13.650;2023-03-01T04:21:19;6.95;;;4.90;;
18917;SDS011;9591;52.742;13.650;2023-03-01T04:24:06;6.97;;;4.75;;
18917;SDS011;9591;52.742;13.650;2023-03-01T04:26:55;8.10;;;4.93;;
18917;SDS011;9591;52.742;13.650;2023-03-01T04:29:42;8.07;;;4.75;;
18917;SDS011;9591;52.742;13.650;2023-03-01T04:32:29;7.85;;;4.35;;
18917;SDS011;9591;52.742;13.650;2023-03-01T04:35:16;9.70;;;6.20;;
18917;SDS011;9591;52.742;13.650;2023-03-01T04:38:03;9.85;;;4.63;;
18917;SDS011;9591;52.742;13.650;2023-03-01T04:40:51;5.47;;;4.18;;
18917;SDS011;9591;52.742;13.650;2023-03-01T04:43:39;7.80;;;4.85;;
18917;SDS011;9591;52.742;13.650;2023-03-01T04:46:25;7.47;;;5.30;;
18917;SDS011;9591;52.742;13.650;2023-03-01T04:49:12;7.57;;;4.50;;
18917;SDS011;9591;52.742;13.650;2023-03-01T04:51:59;14.10;;;5.47;;
18917;SDS011;9591;52.742;13.650;2023-03-01T04:54:47;10.50;;;4.70;;
18917;SDS011;9591;52.742;13.650;2023-03-01T04:57:34;6.55;;;4.97;;
18917;SDS011;9591;52.742;13.650;2023-03-01T05:00:22;10.30;;;5.50;;
18917;SDS011;9591;52.742;13.650;2023-03-01T05:03:09;14.65;;;5.32;;
18917;SDS011;9591;52.742;13.650;2023-03-01T05:05:58;9.93;;;5.53;;
18917;SDS011;9591;52.742;13.650;2023-03-01T05:08:45;12.77;;;5.18;;
18917;SDS011;9591;52.742;13.650;2023-03-01T05:11:32;8.35;;;5.88;;
18917;SDS011;9591;52.742;13.650;2023-03-01T05:14:20;12.38;;;5.47;;
18917;SDS011;9591;52.742;13.650;2023-03-01T05:17:09;7.50;;;5.15;;
18917;SDS011;9591;52.742;13.650;2023-03-01T05:19:56;9.77;;;5.25;;
18917;SDS011;9591;52.742;13.650;2023-03-01T05:22:45;13.05;;;5.65;;
18917;SDS011;9591;52.742;13.650;2023-03-01T05:25:32;17.42;;;6.47;;
18917;SDS011;9591;52.742;13.650;2023-03-01T05:28:19;15.63;;;6.05;;
18917;SDS011;9591;52.742;13.650;2023-03-01T05:31:06;14.82;;;7.25;;
18917;SDS011;9591;52.742;13.650;2023-03-01T05:33:56;9.70;;;6.15;;
18917;SDS011;9591;52.742;13.650;2023-03-01T05:36:44;12.35;;;5.55;;
18917;SDS011;9591;52.742;13.650;2023-03-01T05:39:34;8.45;;;5.18;;
18917;SDS011;9591;52.742;13.650;2023-03-01T05:42:21;10.35;;;5.88;;
18917;SDS011;9591;52.742;13.650;2023-03-01T05:45:08;11.13;;;6.22;;
18917;SDS011;9591;52.742;13.650;2023-03-01T05:47:55;13.27;;;6.45;;
18917;SDS011;9591;52.742;13.650;2023-03-01T05:50:44;10.57;;;6.22;;
18917;SDS011;9591;52.742;13.650;2023-03-01T05:53:32;13.27;;;5.90;;
18917;SDS011;9591;52.742;13.650;2023-03-01T05:56:19;8.95;;;5.28;;
18917;SDS011;9591;52.742;13.650;2023-03-01T05:59:08;15.65;;;6.25;;
18917;SDS011;9591;52.742;13.650;2023-03-01T06:01:55;17.42;;;7.28;;
18917;SDS011;9591;52.742;13.650;2023-03-01T06:04:43;11.40;;;6.13;;
18917;SDS011;9591;52.742;13.650;2023-03-01T06:07:32;10.13;;;5.57;;
18917;SDS011;9591;52.742;13.650;2023-03-01T06:10:19;12.60;;;5.85;;
18917;SDS011;9591;52.742;13.650;2023-03-01T06:13:07;10.48;;;5.80;;
18917;SDS011;9591;52.742;13.650;2023-03-01T06:15:54;14.25;;;6.75;;
18917;SDS011;9591;52.742;13.650;2023-03-01T06:18:41;17.85;;;10.35;;
18917;SDS011;9591;52.742;13.650;2023-03-01T06:21:27;15.40;;;8.48;;
18917;SDS011;9591;52.742;13.650;2023-03-01T06:24:15;13.45;;;7.63;;
18917;SDS011;9591;52.742;13.650;2023-03-01T06:27:02;9.18;;;5.97;;
18917;SDS011;9591;52.742;13.650;2023-03-01T06:29:49;8.65;;;5.00;;
18917;SDS011;9591;52.742;13.650;2023-03-01T06:32:36;8.43;;;5.55;;
18917;SDS011;9591;52.742;13.650;2023-03-01T06:35:23;19.10;;;5.32;;
18917;SDS011;9591;52.742;13.650;2023-03-01T06:38:15;9.55;;;5.70;;
18917;SDS011;9591;52.742;13.650;2023-03-01T06:41:05;9.52;;;5.20;;
18917;SDS011;9591;52.742;13.650;2023-03-01T06:43:52;7.88;;;5.50;;
18917;SDS011;9591;52.742;13.650;2023-03-01T06:46:40;9.40;;;5.43;;
18917;SDS011;9591;52.742;13.650;2023-03-01T06:49:27;8.03;;;4.33;;
18917;SDS011;9591;52.742;13.650;2023-03-01T06:52:13;8.48;;;4.90;;
18917;SDS011;9591;52.742;13.650;2023-03-01T06:55:00;9.73;;;4.97;;
18917;SDS011;9591;52.742;13.650;2023-03-01T06:57:48;8.63;;;5.20;;
18917;SDS011;9591;52.742;13.650;2023-03-01T07:00:39;13.87;;;4.87;;
18917;SDS011;9591;52.742;13.650;2023-03-01T07:03:28;6.73;;;5.43;;
18917;SDS011;9591;52.742;13.650;2023-03-01T07:06:14;13.27;;;6.10;;
18917;SDS011;9591;52.742;13.650;2023-03-01T07:09:01;17.97;;;6.93;;
18917;SDS011;9591;52.742;13.650;2023-03-01T07:11:48;9.50;;;6.27;;
18917;SDS011;9591;52.742;13.650;2023-03-01T07:14:36;12.53;;;5.63;;
18917;SDS011;9591;52.742;13.650;2023-03-01T07:17:22;8.97;;;4.90;;
18917;SDS011;9591;52.742;13.650;2023-03-01T07:20:09;10.30;;;5.80;;
18917;SDS011;9591;52.742;13.650;2023-03-01T07:22:57;6.20;;;5.17;;
18917;SDS011;9591;52.742;13.650;2023-03-01T07:25:43;11.23;;;6.87;;
18917;SDS011;9591;52.742;13.650;2023-03-01T07:28:30;15.73;;;7.17;;
18917;SDS011;9591;52.742;13.650;2023-03-01T07:31:22;12.27;;;7.07;;
18917;SDS011;9591;52.742;13.650;2023-03-01T07:34:09;14.13;;;7.63;;
18917;SDS011;9591;52.742;13.650;2023-03-01T07:36:56;15.73;;;7.90;;
18917;SDS011;9591;52.742;13.650;2023-03-01T07:39:43;11.20;;;7.03;;
18917;SDS011;9591;52.742;13.650;2023-03-01T07:42:30;8.73;;;6.07;;
18917;SDS011;9591;52.742;13.650;2023-03-01T07:45:17;8.43;;;5.90;;
18917;SDS011;9591;52.742;13.650;2023-03-01T07:48:05;11.53;;;6.13;;
18917;SDS011;9591;52.742;13.650;2023-03-01T07:50:51;9.43;;;6.30;;
18917;SDS011;9591;52.742;13.650;2023-03-01T07:53:38;7.53;;;5.70;;
18917;SDS011;9591;52.742;13.650;2023-03-01T07:56:25;11.17;;;7.20;;
18917;SDS011;9591;52.742;13.650;2023-03-01T07:59:12;14.20;;;7.03;;
18917;SDS011;9591;52.742;13.650;2023-03-01T08:01:59;9.60;;;6.57;;
18917;SDS011;9591;52.742;13.650;2023-03-01T08:04:47;21.17;;;9.37;;
18917;SDS011;9591;52.742;13.650;2023-03-01T08:07:34;8.40;;;6.27;;
18917;SDS011;9591;52.742;13.650;2023-03-01T08:10:20;9.10;;;6.13;;
18917;SDS011;9591;52.742;13.650;2023-03-01T08:13:07;18.60;;;9.57;;
18917;SDS011;9591;52.742;13.650;2023-03-01T08:15:54;8.53;;;5.47;;
18917;SDS011;9591;52.742;13.650;2023-03-01T08:18:41;10.43;;;5.90;;
18917;SDS011;9591;52.742;13.650;2023-03-01T08:21:29;12.77;;;6.17;;
18917;SDS011;9591;52.742;13.650;2023-03-01T08:24:16;12.97;;;6.10;;
18917;SDS011;9591;52.742;13.650;2023-03-01T08:27:03;8.47;;;5.13;;
18917;SDS011;9591;52.742;13.650;2023-03-01T08:29:50;8.73;;;5.93;;
18917;SDS011;9591;52.742;13.650;2023-03-01T08:32:37;10.60;;;5.27;;
18917;SDS011;9591;52.742;13.650;2023-03-01T08:35:25;9.30;;;5.03;;
18917;SDS011;9591;52.742;13.650;2023-03-01T08:38:13;10.60;;;4.90;;
18917;SDS011;9591;52.742;13.650;2023-03-01T08:41:00;6.10;;;4.73;;
18917;SDS011;9591;52.742;13.650;2023-03-01T08:43:47;7.00;;;4.53;;
18917;SDS011;9591;52.742;13.650;2023-03-01T08:46:35;11.10;;;5.00;;
18917;SDS011;9591;52.742;13.650;2023-03-01T08:49:23;10.03;;;4.30;;
18917;SDS011;9591;52.742;13.650;2023-03-01T08:52:10;5.37;;;4.17;;
18917;SDS011;9591;52.742;13.650;2023-03-01T08:54:58;8.17;;;4.10;;
18917;SDS011;9591;52.742;13.650;2023-03-01T08:57:46;7.47;;;3.90;;
18917;SDS011;9591;52.742;13.650;2023-03-01T09:00:33;8.23;;;4.03;;
18917;SDS011;9591;52.742;13.650;2023-03-01T09:03:20;11.03;;;4.27;;
18917;SDS011;9591;52.742;13.650;2023-03-01T09:06:08;4.83;;;3.80;;
18917;SDS011;9591;52.742;13.650;2023-03-01T09:08:55;5.77;;;3.93;;
18917;SDS011;9591;52.742;13.650;2023-03-01T09:11:43;8.83;;;3.70;;
18917;SDS011;9591;52.742;13.650;2023-03-01T09:14:32;8.10;;;4.53;;
18917;SDS011;9591;52.742;13.650;2023-03-01T09:17:19;7.97;;;4.50;;
18917;SDS011;9591;52.742;13.650;2023-03-01T09:20:06;13.50;;;4.37;;
18917;SDS011;9591;52.742;13.650;2023-03-01T09:22:54;6.13;;;4.03;;
18917;SDS011;9591;52.742;13.650;2023-03-01T09:25:41;8.63;;;4.30;;
18917;SDS011;9591;52.742;13.650;2023-03-01T09:28:30;10.43;;;4.50;;
18917;SDS011;9591;52.742;13.650;2023-03-01T09:31:17;9.17;;;4.87;;
18917;SDS011;9591;52.742;13.650;2023-03-01T09:34:05;5.40;;;3.87;;
18917;SDS011;9591;52.742;13.650;2023-03-01T09:36:52;9.60;;;4.33;;
18917;SDS011;9591;52.742;13.650;2023-03-01T09:39:39;5.47;;;4.23;;
18917;SDS011;9591;52.742;13.650;2023-03-01T09:42:26;7.10;;;3.97;;
18917;SDS011;9591;52.742;13.650;2023-03-01T09:45:19;6.00;;;4.10;;
18917;SDS011;9591;52.742;13.650;2023-03-01T09:48:14;5.47;;;3.50;;
18917;SDS011;9591;52.742;13.650;2023-03-01T09:51:05;5.77;;;3.77;;
18917;SDS011;9591;52.742;13.650;2023-03-01T09:53:55;4.67;;;3.53;;
18917;SDS011;9591;52.742;13.650;2023-03-01T09:56:44;5.63;;;3.57;;
18917;SDS011;9591;52.742;13.650;2023-03-01T09:59:44;8.63;;;3.80;;
18917;SDS011;9591;52.742;13.650;2023-03-01T10:02:44;4.83;;;3.20;;
18917;SDS011;9591;52.742;13.650;2023-03-01T10:05:36;8.77;;;3.50;;
18917;SDS011;9591;52.742;13.650;2023-03-01T10:08:33;5.07;;;3.20;;
18917;SDS011;9591;52.742;13.650;2023-03-01T10:11:25;6.10;;;3.37;;
18917;SDS011;9591;52.742;13.650;2023-03-01T10:14:19;5.57;;;3.23;;
18917;SDS011;9591;52.742;13.650;2023-03-01T10:17:19;5.30;;;2.83;;
18917;SDS011;9591;52.742;13.650;2023-03-01T10:20:20;5.03;;;2.87;;
18917;SDS011;9591;52.742;13.650;2023-03-01T10:23:08;3.67;;;2.80;;
18917;SDS011;9591;52.742;13.650;2023-03-01T10:25:57;3.73;;;2.93;;
18917;SDS011;9591;52.742;13.650;2023-03-01T10:29:02;6.17;;;3.10;;
18917;SDS011;9591;52.742;13.650;2023-03-01T10:31:52;5.43;;;2.97;;
18917;SDS011;9591;52.742;13.650;2023-03-01T10:34:40;4.40;;;2.70;;
18917;SDS011;9591;52.742;13.650;2023-03-01T10:37:28;4.80;;;2.73;;
18917;SDS011;9591;52.742;13.650;2023-03-01T10:40:15;6.07;;;3.20;;
18917;SDS011;9591;52.742;13.650;2023-03-01T10:43:04;5.10;;;2.50;;
18917;SDS011;9591;52.742;13.650;2023-03-01T10:45:52;3.10;;;2.80;;
18917;SDS011;9591;52.742;13.650;2023-03-01T10:48:39;3.43;;;3.10;;
18917;SDS011;9591;52.742;13.650;2023-03-01T10:51:26;7.70;;;2.73;;
18917;SDS011;9591;52.742;13.650;2023-03-01T10:54:18;4.97;;;2.60;;
18917;SDS011;9591;52.742;13.650;2023-03-01T10:57:10;4.50;;;2.77;;
18917;SDS011;9591;52.742;13.650;2023-03-01T11:00:22;3.97;;;2.70;;
18917;SDS011;9591;52.742;13.650;2023-03-01T11:03:10;2.73;;;2.37;;
18917;SDS011;9591;52.742;13.650;2023-03-01T11:06:03;2.93;;;2.60;;
18917;SDS011;9591;52.742;13.650;2023-03-01T11:09:13;4.33;;;2.33;;
18917;SDS011;9591;52.742;13.650;2023-03-01T11:12:03;5.27;;;2.90;;
18917;SDS011;9591;52.742;13.650;2023-03-01T11:15:00;4.87;;;3.00;;
18917;SDS011;9591;52.742;13.650;2023-03-01T11:17:47;6.20;;;3.23;;
18917;SDS011;9591;52.742;13.650;2023-03-01T11:20:45;3.83;;;2.37;;
18917;SDS011;9591;52.742;13.650;2023-03-01T11:23:32;3.60;;;3.00;;
18917;SDS011;9591;52.742;13.650;2023-03-01T11:26:19;3.90;;;2.90;;
18917;SDS011;9591;52.742;13.650;2023-03-01T11:29:12;4.77;;;3.00;;
18917;SDS011;9591;52.742;13.650;2023-03-01T11:32:06;3.93;;;2.80;;
18917;SDS011;9591;52.742;13.650;2023-03-01T11:34:56;4.50;;;2.70;;
18917;SDS011;9591;52.742;13.650;2023-03-01T11:37:51;3.23;;;2.43;;
18917;SDS011;9591;52.742;13.650;2023-03-01T11:40:50;4.73;;;2.97;;
18917;SDS011;9591;52.742;13.650;2023-03-01T11:43:46;4.47;;;2.63;;
18917;SDS011;9591;52.742;13.650;2023-03-01T11:46:42;6.60;;;3.00;;
18917;SDS011;9591;52.742;13.650;2023-03-01T11:50:00;4.03;;;2.33;;
18917;SDS011;9591;52.742;13.650;2023-03-01T11:53:00;4.87;;;2.63;;
18917;SDS011;9591;52.742;13.650;2023-03-01T11:56:02;5.77;;;2.93;;
18917;SDS011;9591;52.742;13.650;2023-03-01T11:59:03;3.93;;;2.80;;
18917;SDS011;9591;52.742;13.650;2023-03-01T12:02:15;7.33;;;2.90;;
18917;SDS011;9591;52.742;13.650;2023-03-01T12:05:18;4.43;;;2.67;;
18917;SDS011;9591;52.742;13.650;2023-03-01T12:08:13;3.70;;;2.60;;
18917;SDS011;9591;52.742;13.650;2023-03-01T12:11:09;3.40;;;2.40;;
18917;SDS011;9591;52.742;13.650;2023-03-01T12:17:38;3.70;;;2.80;;
18917;SDS011;9591;52.742;13.650;2023-03-01T12:20:34;3.20;;;2.37;;
18917;SDS011;9591;52.742;13.650;2023-03-01T12:23:33;2.87;;;2.30;;
18917;SDS011;9591;52.742;13.650;2023-03-01T12:26:40;3.17;;;2.40;;
18917;SDS011;9591;52.742;13.650;2023-03-01T12:29:37;3.33;;;2.20;;
18917;SDS011;9591;52.742;13.650;2023-03-01T12:32:33;5.33;;;2.73;;
18917;SDS011;9591;52.742;13.650;2023-03-01T12:35:42;3.40;;;2.13;;
18917;SDS011;9591;52.742;13.650;2023-03-01T12:38:41;2.93;;;2.30;;
18917;SDS011;9591;52.742;13.650;2023-03-01T12:41:34;6.13;;;2.60;;
18917;SDS011;9591;52.742;13.650;2023-03-01T12:47:52;3.90;;;3.13;;
18917;SDS011;9591;52.742;13.650;2023-03-01T12:50:51;8.33;;;3.43;;
18917;SDS011;9591;52.742;13.650;2023-03-01T12:53:40;4.90;;;2.83;;
18917;SDS011;9591;52.742;13.650;2023-03-01T12:56:30;6.80;;;3.40;;
18917;SDS011;9591;52.742;13.650;2023-03-01T12:59:21;5.90;;;3.50;;
18917;SDS011;9591;52.742;13.650;2023-03-01T13:02:15;5.40;;;2.90;;
18917;SDS011;9591;52.742;13.650;2023-03-01T13:05:23;6.23;;;3.10;;
18917;SDS011;9591;52.742;13.650;2023-03-01T13:08:16;7.20;;;3.10;;
18917;SDS011;9591;52.742;13.650;2023-03-01T13:11:12;4.77;;;3.10;;
18917;SDS011;9591;52.742;13.650;2023-03-01T13:17:43;4.53;;;3.00;;
18917;SDS011;9591;52.742;13.650;2023-03-01T13:20:34;4.93;;;3.47;;
18917;SDS011;9591;52.742;13.650;2023-03-01T13:23:34;4.27;;;2.70;;
18917;SDS011;9591;52.742;13.650;2023-03-01T13:26:22;6.87;;;2.97;;
18917;SDS011;9591;52.742;13.650;2023-03-01T13:29:11;7.77;;;3.63;;
18917;SDS011;9591;52.742;13.650;2023-03-01T13:32:19;3.87;;;3.07;;
18917;SDS011;9591;52.742;13.650;2023-03-01T13:38:39;5.80;;;2.77;;
18917;SDS011;9591;52.742;13.650;2023-03-01T13:41:48;4.67;;;3.07;;
18917;SDS011;9591;52.742;13.650;2023-03-01T13:44:36;4.53;;;3.03;;
18917;SDS011;9591;52.742;13.650;2023-03-01T13:47:24;3.73;;;2.93;;
18917;SDS011;9591;52.742;13.650;2023-03-01T13:50:16;4.07;;;2.77;;
18917;SDS011;9591;52.742;13.650;2023-03-01T13:53:09;4.67;;;2.90;;
18917;SDS011;9591;52.742;13.650;2023-03-01T13:56:06;6.73;;;3.43;;
18917;SDS011;9591;52.742;13.650;2023-03-01T13:58:58;7.70;;;3.77;;
18917;SDS011;9591;52.742;13.650;2023-03-01T14:01:51;3.30;;;2.40;;
18917;SDS011;9591;52.742;13.650;2023-03-01T14:04:39;2.77;;;2.40;;
18917;SDS011;9591;52.742;13.650;2023-03-01T14:07:27;4.87;;;2.40;;
18917;SDS011;9591;52.742;13.650;2023-03-01T14:10:16;3.47;;;2.67;;
18917;SDS011;9591;52.742;13.650;2023-03-01T14:13:06;2.37;;;2.17;;
18917;SDS011;9591;52.742;13.650;2023-03-01T14:16:11;4.27;;;2.40;;
18917;SDS011;9591;52.742;13.650;2023-03-01T14:19:14;4.00;;;2.33;;
18917;SDS011;9591;52.742;13.650;2023-03-01T14:22:18;7.50;;;2.50;;
18917;SDS011;9591;52.742;13.650;2023-03-01T14:25:19;3.80;;;2.80;;
18917;SDS011;9591;52.742;13.650;2023-03-01T14:28:13;3.20;;;2.43;;
18917;SDS011;9591;52.742;13.650;2023-03-01T14:31:02;10.50;;;2.70;;
18917;SDS011;9591;52.742;13.650;2023-03-01T14:33:54;2.97;;;2.67;;
18917;SDS011;9591;52.742;13.650;2023-03-01T14:36:42;4.97;;;2.70;;
18917;SDS011;9591;52.742;13.650;2023-03-01T14:39:29;3.67;;;2.40;;
18917;SDS011;9591;52.742;13.650;2023-03-01T14:42:19;3.40;;;2.30;;
18917;SDS011;9591;52.742;13.650;2023-03-01T14:45:09;6.70;;;2.97;;
18917;SDS011;9591;52.742;13.650;2023-03-01T14:48:00;2.83;;;2.53;;
18917;SDS011;9591;52.742;13.650;2023-03-01T14:50:49;3.87;;;2.43;;
18917;SDS011;9591;52.742;13.650;2023-03-01T14:53:37;3.73;;;2.40;;
18917;SDS011;9591;52.742;13.650;2023-03-01T14:56:43;2.93;;;2.43;;
18917;SDS011;9591;52.742;13.650;2023-03-01T14:59:32;2.57;;;2.17;;
18917;SDS011;9591;52.742;13.650;2023-03-01T15:02:21;3.63;;;2.23;;
18917;SDS011;9591;52.742;13.650;2023-03-01T15:05:09;3.07;;;2.27;;
18917;SDS011;9591;52.742;13.650;2023-03-01T15:07:56;2.93;;;2.20;;
18917;SDS011;9591;52.742;13.650;2023-03-01T15:10:55;8.70;;;2.20;;
18917;SDS011;9591;52.742;13.650;2023-03-01T15:13:45;4.73;;;2.50;;
18917;SDS011;9591;52.742;13.650;2023-03-01T15:16:33;2.47;;;1.80;;
18917;SDS011;9591;52.742;13.650;2023-03-01T15:19:26;3.17;;;2.07;;
18917;SDS011;9591;52.742;13.650;2023-03-01T15:22:14;3.20;;;2.10;;
18917;SDS011;9591;52.742;13.650;2023-03-01T15:25:02;3.23;;;1.93;;
18917;SDS011;9591;52.742;13.650;2023-03-01T15:27:49;6.13;;;2.13;;
18917;SDS011;9591;52.742;13.650;2023-03-01T15:30:38;2.83;;;2.33;;
18917;SDS011;9591;52.742;13.650;2023-03-01T15:33:31;2.63;;;2.43;;
18917;SDS011;9591;52.742;13.650;2023-03-01T15:36:31;2.90;;;2.17;;
18917;SDS011;9591;52.742;13.650;2023-03-01T15:39:33;3.50;;;2.13;;
18917;SDS011;9591;52.742;13.650;2023-03-01T15:42:35;4.73;;;2.00;;
18917;SDS011;9591;52.742;13.650;2023-03-01T15:45:23;2.43;;;2.17;;
18917;SDS011;9591;52.742;13.650;2023-03-01T15:48:14;4.30;;;1.90;;
18917;SDS011;9591;52.742;13.650;2023-03-01T15:51:10;2.43;;;2.00;;
18917;SDS011;9591;52.742;13.650;2023-03-01T15:54:04;2.00;;;1.80;;
18917;SDS011;9591;52.742;13.650;2023-03-01T15:56:53;3.20;;;2.20;;
18917;SDS011;9591;52.742;13.650;2023-03-01T15:59:40;3.63;;;2.10;;
18917;SDS011;9591;52.742;13.650;2023-03-01T16:02:26;8.13;;;2.10;;
18917;SDS011;9591;52.742;13.650;2023-03-01T16:05:16;3.13;;;2.33;;
18917;SDS011;9591;52.742;13.650;2023-03-01T16:08:07;4.20;;;2.40;;
18917;SDS011;9591;52.742;13.650;2023-03-01T16:10:54;4.63;;;2.63;;
18917;SDS011;9591;52.742;13.650;2023-03-01T16:13:41;3.73;;;2.60;;
18917;SDS011;9591;52.742;13.650;2023-03-01T16:16:27;4.20;;;2.10;;
18917;SDS011;9591;52.742;13.650;2023-03-01T16:19:15;3.77;;;2.03;;
18917;SDS011;9591;52.742;13.650;2023-03-01T16:22:03;3.63;;;2.50;;
18917;SDS011;9591;52.742;13.650;2023-03-01T16:24:51;2.80;;;2.37;;
18917;SDS011;9591;52.742;13.650;2023-03-01T16:27:41;7.00;;;2.37;;
18917;SDS011;9591;52.742;13.650;2023-03-01T16:30:52;2.57;;;2.37;;
18917;SDS011;9591;52.742;13.650;2023-03-01T16:33:39;2.73;;;2.23;;
18917;SDS011;9591;52.742;13.650;2023-03-01T16:36:27;2.60;;;2.13;;
18917;SDS011;9591;52.742;13.650;2023-03-01T16:39:14;3.63;;;2.00;;
18917;SDS011;9591;52.742;13.650;2023-03-01T16:42:03;2.57;;;2.33;;
18917;SDS011;9591;52.742;13.650;2023-03-01T16:44:51;3.23;;;2.50;;
18917;SDS011;9591;52.742;13.650;2023-03-01T16:47:41;4.50;;;2.90;;
18917;SDS011;9591;52.742;13.650;2023-03-01T16:50:28;6.80;;;2.67;;
18917;SDS011;9591;52.742;13.650;2023-03-01T16:53:14;5.27;;;2.47;;
18917;SDS011;9591;52.742;13.650;2023-03-01T16:56:02;10.00;;;2.40;;
18917;SDS011;9591;52.742;13.650;2023-03-01T16:58:51;5.83;;;2.27;;
18917;SDS011;9591;52.742;13.650;2023-03-01T17:01:39;7.07;;;2.77;;
18917;SDS011;9591;52.742;13.650;2023-03-01T17:04:27;3.00;;;2.50;;
18917;SDS011;9591;52.742;13.650;2023-03-01T17:07:14;4.33;;;3.03;;
18917;SDS011;9591;52.742;13.650;2023-03-01T17:10:01;5.50;;;3.90;;
18917;SDS011;9591;52.742;13.650;2023-03-01T17:12:49;17.97;;;11.47;;
18917;SDS011;9591;52.742;13.650;2023-03-01T17:15:39;21.57;;;14.33;;